createdAt,value
2018-12-24T00:01:53.609Z,13.37
2018-12-24T00:04:26.719Z,13.53
2018-12-24T00:07:04.390Z,12.43
2018-12-24T00:09:38.441Z,12.37
2018-12-24T00:12:13.591Z,10.70
2018-12-24T00:14:47.996Z,11.70
2018-12-24T00:17:20.903Z,10.47
2018-12-24T00:19:55.461Z,11.27
2018-12-24T00:22:28.917Z,8.53
2018-12-24T00:25:01.939Z,7.10
2018-12-24T00:27:36.872Z,7.57
2018-12-24T00:30:16.168Z,6.87
2018-12-24T00:32:49.196Z,6.57
2018-12-24T00:35:22.347Z,8.37
2018-12-24T00:37:55.675Z,7.30
2018-12-24T00:40:28.696Z,7.72
2018-12-24T00:43:01.595Z,6.87
2018-12-24T00:45:37.346Z,8.70
2018-12-24T00:48:25.642Z,8.33
2018-12-24T00:50:58.664Z,9.40
2018-12-24T00:53:33.948Z,8.43
2018-12-24T00:56:06.912Z,10.63
2018-12-24T00:58:39.811Z,8.87
2018-12-24T01:01:13.691Z,9.10
2018-12-24T01:03:46.905Z,10.50
2018-12-24T01:06:20.671Z,12.40
2018-12-24T01:08:57.321Z,10.33
2018-12-24T01:11:30.341Z,11.57
2018-12-24T01:14:03.964Z,8.67
2018-12-24T01:16:38.407Z,11.20
2018-12-24T01:19:12.029Z,11.33
2018-12-24T01:21:45.836Z,9.57
2018-12-24T01:24:19.945Z,10.37
2018-12-24T01:26:54.067Z,8.80
2018-12-24T01:29:26.969Z,10.03
2018-12-24T01:32:00.362Z,11.10
2018-12-24T01:34:33.302Z,10.57
2018-12-24T01:37:07.645Z,11.00
2018-12-24T01:39:41.771Z,10.20
2018-12-24T01:42:15.849Z,8.80
2018-12-24T01:44:49.020Z,10.90
2018-12-24T01:47:22.564Z,10.52
2018-12-24T01:49:55.586Z,10.00
2018-12-24T01:52:28.552Z,10.63
2018-12-24T01:55:03.934Z,10.90
2018-12-24T01:57:37.000Z,11.20
2018-12-24T02:00:09.996Z,10.97
2018-12-24T02:02:45.592Z,11.90
2018-12-24T02:05:18.306Z,16.27
2018-12-24T02:07:51.381Z,15.40
2018-12-24T02:10:24.769Z,20.50
2018-12-24T02:12:57.752Z,24.97
2018-12-24T02:15:30.741Z,28.03
2018-12-24T02:18:05.024Z,25.60
2018-12-24T02:20:38.359Z,28.47
2018-12-24T02:23:13.176Z,31.67
2018-12-24T02:25:46.563Z,31.40
2018-12-24T02:28:19.564Z,30.98
2018-12-24T02:30:52.622Z,27.63
2018-12-24T02:33:29.818Z,32.25
2018-12-24T02:36:02.804Z,29.70
2018-12-24T02:38:36.122Z,29.53
2018-12-24T02:41:09.617Z,30.53
2018-12-24T02:43:42.950Z,33.00
2018-12-24T02:46:15.778Z,31.77
2018-12-24T02:48:50.216Z,29.90
2018-12-24T02:51:23.757Z,24.80
2018-12-24T02:53:57.066Z,26.37
2018-12-24T02:56:33.469Z,28.35
2018-12-24T02:59:06.525Z,23.40
2018-12-24T03:01:39.427Z,26.67
2018-12-24T03:04:12.868Z,23.23
2018-12-24T03:06:45.800Z,21.77
2018-12-24T03:09:19.145Z,22.57
2018-12-24T03:11:52.568Z,22.97
2018-12-24T03:14:25.388Z,21.53
2018-12-24T03:16:58.180Z,23.57
2018-12-24T03:19:31.547Z,24.13
2018-12-24T03:22:04.369Z,23.73
2018-12-24T03:24:38.205Z,26.17
2018-12-24T03:27:11.588Z,23.80
2018-12-24T03:29:44.859Z,22.67
2018-12-24T03:32:17.803Z,23.97
2018-12-24T03:34:51.634Z,26.17
2018-12-24T03:37:24.898Z,26.98
2018-12-24T03:39:57.708Z,24.77
2018-12-24T03:42:32.370Z,26.10
2018-12-24T03:45:06.921Z,27.70
2018-12-24T03:47:39.796Z,25.37
2018-12-24T03:50:14.135Z,29.77
2018-12-24T03:52:47.622Z,26.10
2018-12-24T03:55:20.512Z,29.03
2018-12-24T03:57:53.980Z,31.83
2018-12-24T04:00:27.160Z,31.03
2018-12-24T04:03:00.383Z,35.10
2018-12-24T04:05:33.747Z,35.07
2018-12-24T04:08:06.898Z,32.57
2018-12-24T04:10:40.506Z,31.93
2018-12-24T04:13:22.346Z,37.90
2018-12-24T04:15:55.928Z,32.23
2018-12-24T04:18:28.734Z,33.13
2018-12-24T04:21:03.140Z,34.07
2018-12-24T04:23:36.180Z,31.33
2018-12-24T04:26:09.152Z,34.30
2018-12-24T04:28:42.817Z,36.28
2018-12-24T04:31:15.689Z,31.37
2018-12-24T04:33:48.795Z,32.00
2018-12-24T04:36:22.078Z,31.67
2018-12-24T04:38:55.018Z,30.80
2018-12-24T04:41:28.045Z,34.25
2018-12-24T04:44:02.532Z,35.23
2018-12-24T04:46:35.443Z,30.30
2018-12-24T04:49:08.271Z,32.17
2018-12-24T04:51:42.616Z,33.63
2018-12-24T04:54:15.470Z,30.83
2018-12-24T04:56:48.710Z,27.80
2018-12-24T04:59:22.348Z,29.00
2018-12-24T05:01:55.511Z,29.43
2018-12-24T05:04:28.463Z,28.53
2018-12-24T05:07:01.827Z,30.20
2018-12-24T05:09:35.417Z,33.43
2018-12-24T05:12:08.341Z,30.17
2018-12-24T05:14:42.875Z,31.20
2018-12-24T05:17:15.808Z,28.17
2018-12-24T05:19:48.957Z,29.63
2018-12-24T05:22:22.395Z,29.60
2018-12-24T05:24:55.219Z,33.33
2018-12-24T05:27:28.212Z,31.00
2018-12-24T05:30:03.867Z,32.75
2018-12-24T05:32:36.854Z,31.43
2018-12-24T05:35:09.823Z,34.33
2018-12-24T05:37:44.207Z,30.60
2018-12-24T05:40:17.865Z,32.13
2018-12-24T05:42:50.828Z,29.60
2018-12-24T05:45:24.185Z,34.45
2018-12-24T05:47:57.187Z,29.33
2018-12-24T05:50:31.545Z,34.17
2018-12-24T05:53:05.862Z,38.37
2018-12-24T05:55:38.839Z,34.85
2018-12-24T05:58:11.768Z,32.83
2018-12-24T06:00:46.233Z,34.00
2018-12-24T06:03:19.196Z,32.83
2018-12-24T06:05:54.854Z,36.90
2018-12-24T06:08:29.896Z,32.10
2018-12-24T06:11:06.935Z,35.63
2018-12-24T06:13:48.224Z,29.43
2018-12-24T06:16:21.569Z,36.10
2018-12-24T06:18:54.528Z,32.93
2018-12-24T06:21:27.519Z,28.70
2018-12-24T06:24:00.520Z,30.40
2018-12-24T06:26:33.485Z,28.52
2018-12-24T06:29:06.804Z,27.13
2018-12-24T06:31:40.264Z,28.47
2018-12-24T06:34:13.287Z,25.20
2018-12-24T06:36:46.099Z,28.10
2018-12-24T06:39:20.565Z,27.70
2018-12-24T06:41:53.430Z,25.93
2018-12-24T06:44:26.519Z,24.40
2018-12-24T06:47:00.502Z,24.80
2018-12-24T06:49:35.268Z,21.57
2018-12-24T06:52:08.267Z,22.73
2018-12-24T06:54:42.000Z,22.83
2018-12-24T06:57:14.895Z,20.53
2018-12-24T06:59:47.860Z,20.58
2018-12-24T07:02:22.268Z,21.63
2018-12-24T07:04:55.511Z,16.83
2018-12-24T07:07:30.619Z,17.70
2018-12-24T07:10:04.432Z,15.30
2018-12-24T07:12:41.057Z,17.73
2018-12-24T07:15:19.704Z,17.93
2018-12-24T07:17:53.263Z,17.37
2018-12-24T07:20:27.119Z,17.40
2018-12-24T07:23:00.078Z,20.33
2018-12-24T07:25:33.934Z,14.53
2018-12-24T07:28:08.520Z,15.93
2018-12-24T07:30:41.577Z,12.00
2018-12-24T07:33:14.610Z,12.37
2018-12-24T07:35:48.209Z,12.97
2018-12-24T07:38:21.139Z,13.80
2018-12-24T07:40:54.088Z,13.13
2018-12-24T07:43:28.204Z,8.57
2018-12-24T07:46:02.430Z,9.98
2018-12-24T07:48:37.789Z,9.13
2018-12-24T07:51:10.830Z,9.40
2018-12-24T07:53:43.729Z,13.47
2018-12-24T07:56:17.648Z,8.50
2018-12-24T07:58:50.608Z,8.83
2018-12-24T08:01:23.816Z,9.27
2018-12-24T08:03:58.218Z,7.57
2018-12-24T08:06:31.380Z,8.95
2018-12-24T08:09:08.821Z,7.87
2018-12-24T08:11:44.595Z,7.03
2018-12-24T08:14:17.728Z,7.97
2018-12-24T08:16:50.645Z,8.43
2018-12-24T08:19:23.690Z,7.80
2018-12-24T08:21:56.677Z,6.93
2018-12-24T08:24:30.438Z,8.63
2018-12-24T08:27:03.564Z,6.90
2018-12-24T08:29:36.515Z,7.97
2018-12-24T08:32:11.479Z,7.07
2018-12-24T08:34:44.645Z,7.70
2018-12-24T08:37:19.404Z,7.72
2018-12-24T08:39:52.986Z,8.97
2018-12-24T08:42:25.824Z,7.37
2018-12-24T08:44:59.736Z,7.83
2018-12-24T08:47:37.557Z,8.07
2018-12-24T08:50:10.546Z,9.60
2018-12-24T08:52:45.872Z,7.23
2018-12-24T08:55:18.841Z,5.90
2018-12-24T08:57:53.357Z,6.73
2018-12-24T09:00:27.288Z,5.90
2018-12-24T09:03:00.257Z,5.83
2018-12-24T09:05:34.267Z,7.65
2018-12-24T09:08:08.119Z,5.77
2018-12-24T09:10:40.965Z,7.00
2018-12-24T09:13:14.816Z,7.30
2018-12-24T09:15:47.785Z,5.97
2018-12-24T09:18:21.187Z,6.67
2018-12-24T09:20:54.675Z,7.50
2018-12-24T09:23:28.591Z,7.60
2018-12-24T09:26:02.812Z,6.43
2018-12-24T09:28:35.924Z,6.05
2018-12-24T09:31:10.393Z,7.03
2018-12-24T09:33:43.761Z,5.47
2018-12-24T09:36:18.651Z,5.00
2018-12-24T09:38:52.145Z,6.15
2018-12-24T09:41:29.665Z,5.83
2018-12-24T09:44:02.656Z,5.93
2018-12-24T09:46:36.536Z,6.83
2018-12-24T09:49:09.945Z,6.20
2018-12-24T09:51:44.158Z,4.20
2018-12-24T09:54:17.222Z,5.93
2018-12-24T09:56:52.221Z,4.60
2018-12-24T09:59:30.155Z,5.40
2018-12-24T10:02:04.762Z,5.50
2018-12-24T10:04:48.869Z,6.93
2018-12-24T10:07:45.581Z,8.00
2018-12-24T10:10:20.348Z,7.17
2018-12-24T10:12:53.769Z,5.93
2018-12-24T10:15:27.500Z,6.57
2018-12-24T10:18:09.807Z,6.00
2018-12-24T10:20:48.129Z,4.87
2018-12-24T10:23:22.709Z,4.80
2018-12-24T10:25:58.624Z,6.95
2018-12-24T10:28:31.470Z,4.10
2018-12-24T10:31:05.353Z,4.70
2018-12-24T10:33:38.404Z,5.40
2018-12-24T10:36:13.118Z,5.70
2018-12-24T10:38:47.523Z,4.10
2018-12-24T10:41:26.913Z,4.18
2018-12-24T10:44:02.274Z,3.45
2018-12-24T10:46:35.453Z,3.93
2018-12-24T10:49:10.744Z,3.13
2018-12-24T10:51:43.685Z,3.57
2018-12-24T10:54:17.267Z,3.87
2018-12-24T10:56:56.719Z,2.57
2018-12-24T10:59:30.434Z,2.87
2018-12-24T11:02:07.470Z,2.33
2018-12-24T11:04:40.447Z,3.28
2018-12-24T11:07:13.843Z,3.30
2018-12-24T11:09:50.616Z,2.17
2018-12-24T11:12:27.049Z,2.00
2018-12-24T11:15:02.578Z,2.30
2018-12-24T11:17:36.541Z,2.17
2018-12-24T11:20:10.879Z,3.70
2018-12-24T11:22:45.623Z,3.47
2018-12-24T11:25:19.528Z,2.30
2018-12-24T11:27:56.574Z,4.17
2018-12-24T11:30:30.699Z,5.03
2018-12-24T11:33:05.155Z,3.10
2018-12-24T11:35:38.759Z,2.13
2018-12-24T11:38:11.780Z,4.40
2018-12-24T11:40:48.179Z,2.03
2018-12-24T11:43:22.554Z,2.10
2018-12-24T11:45:56.757Z,3.53
2018-12-24T11:48:31.397Z,2.20
2018-12-24T11:51:04.675Z,2.50
2018-12-24T11:53:38.861Z,4.10
2018-12-24T11:56:13.995Z,3.23
2018-12-24T11:58:48.810Z,2.63
2018-12-24T12:01:22.467Z,4.03
2018-12-24T12:03:57.038Z,3.57
2018-12-24T12:06:30.828Z,3.70
2018-12-24T12:09:10.492Z,3.07
2018-12-24T12:11:44.265Z,2.83
2018-12-24T12:14:17.238Z,2.93
2018-12-24T12:16:52.568Z,4.53
2018-12-24T12:19:26.658Z,3.87
2018-12-24T12:22:01.255Z,3.47
2018-12-24T12:24:36.513Z,2.87
2018-12-24T12:27:10.432Z,5.03
2018-12-24T12:29:44.171Z,3.78
2018-12-24T12:32:18.748Z,3.87
2018-12-24T12:34:52.871Z,2.57
2018-12-24T12:37:31.973Z,2.83
2018-12-24T12:40:06.310Z,2.93
2018-12-24T12:42:39.298Z,2.87
2018-12-24T12:45:15.026Z,2.58
2018-12-24T12:47:47.873Z,2.93
2018-12-24T12:50:26.359Z,2.63
2018-12-24T12:53:00.357Z,2.87
2018-12-24T12:55:33.373Z,2.77
2018-12-24T12:58:06.826Z,2.33
2018-12-24T13:00:40.953Z,3.03
2018-12-24T13:03:14.639Z,2.37
2018-12-24T13:05:48.246Z,3.00
2018-12-24T13:08:24.247Z,3.43
2018-12-24T13:10:57.278Z,3.97
2018-12-24T13:13:36.684Z,3.60
2018-12-24T13:16:11.033Z,3.23
2018-12-24T13:18:43.960Z,3.50
2018-12-24T13:21:18.408Z,4.03
2018-12-24T13:23:51.946Z,3.10
2018-12-24T13:26:25.052Z,3.90
2018-12-24T13:28:58.648Z,3.67
2018-12-24T13:31:33.325Z,2.80
2018-12-24T13:34:07.180Z,3.37
2018-12-24T13:36:43.378Z,3.33
2018-12-24T13:39:16.519Z,3.10
2018-12-24T13:41:50.135Z,3.23
2018-12-24T13:44:23.492Z,3.30
2018-12-24T13:46:56.564Z,4.15
2018-12-24T13:49:30.284Z,3.30
2018-12-24T13:52:04.088Z,3.60
2018-12-24T13:54:37.750Z,5.07
2018-12-24T13:57:12.486Z,6.80
2018-12-24T13:59:46.684Z,5.87
2018-12-24T14:02:19.786Z,4.23
2018-12-24T14:04:53.378Z,5.67
2018-12-24T14:07:28.645Z,4.97
2018-12-24T14:10:01.619Z,5.10
2018-12-24T14:12:34.639Z,5.30
2018-12-24T14:15:08.647Z,4.70
2018-12-24T14:17:54.602Z,5.63
2018-12-24T14:20:29.011Z,5.47
2018-12-24T14:23:04.455Z,5.10
2018-12-24T14:25:38.579Z,4.87
2018-12-24T14:28:12.769Z,5.13
2018-12-24T14:30:46.733Z,5.03
2018-12-24T14:33:21.003Z,4.40
2018-12-24T14:35:54.608Z,4.70
2018-12-24T14:38:27.620Z,5.17
2018-12-24T14:41:00.538Z,3.50
2018-12-24T14:43:34.034Z,3.03
2018-12-24T14:46:06.903Z,3.17
2018-12-24T14:48:40.538Z,3.97
2018-12-24T14:51:18.140Z,3.40
2018-12-24T14:54:07.223Z,7.50
2018-12-24T14:56:41.457Z,3.03
2018-12-24T14:59:16.077Z,4.13
2018-12-24T15:01:48.993Z,3.13
2018-12-24T15:04:22.822Z,2.87
2018-12-24T15:06:56.055Z,3.27
2018-12-24T15:09:29.580Z,3.70
2018-12-24T15:12:04.212Z,3.03
2018-12-24T15:14:37.944Z,4.40
2018-12-24T15:17:11.821Z,3.33
2018-12-24T15:19:46.267Z,5.20
2018-12-24T15:22:19.639Z,3.47
2018-12-24T15:24:52.650Z,4.13
2018-12-24T15:27:26.445Z,4.07
2018-12-24T15:30:00.768Z,3.22
2018-12-24T15:32:34.593Z,4.43
2018-12-24T15:35:09.056Z,4.00
2018-12-24T15:37:43.393Z,3.93
2018-12-24T15:40:16.766Z,4.63
2018-12-24T15:42:50.489Z,4.05
2018-12-24T15:45:23.443Z,3.63
2018-12-24T15:47:56.264Z,4.40
2018-12-24T15:50:29.235Z,3.77
2018-12-24T15:53:03.906Z,4.67
2018-12-24T15:55:38.070Z,3.47
2018-12-24T15:58:11.880Z,5.73
2018-12-24T16:00:44.856Z,4.93
2018-12-24T16:03:25.527Z,11.43
2018-12-24T16:06:01.516Z,13.13
2018-12-24T16:08:37.801Z,10.17
2018-12-24T16:11:11.184Z,12.93
2018-12-24T16:13:44.701Z,10.05
2018-12-24T16:16:19.099Z,9.10
2018-12-24T16:18:55.885Z,8.00
2018-12-24T16:21:29.542Z,8.40
2018-12-24T16:24:03.015Z,7.97
2018-12-24T16:26:36.048Z,8.27
2018-12-24T16:29:16.197Z,10.90
2018-12-24T16:31:50.151Z,10.70
2018-12-24T16:34:25.800Z,8.00
2018-12-24T16:37:01.522Z,9.53
2018-12-24T16:39:59.392Z,11.87
2018-12-24T16:42:36.962Z,11.00
2018-12-24T16:45:12.580Z,11.10
2018-12-24T16:47:54.320Z,9.33
2018-12-24T16:50:29.635Z,9.05
2018-12-24T16:53:06.360Z,9.73
2018-12-24T16:55:40.543Z,9.03
2018-12-24T16:58:15.393Z,14.80
2018-12-24T17:00:53.593Z,15.67
2018-12-24T17:03:27.454Z,15.43
2018-12-24T17:06:00.369Z,16.33
2018-12-24T17:08:35.396Z,14.40
2018-12-24T17:11:09.324Z,12.27
2018-12-24T17:13:43.100Z,13.00
2018-12-24T17:16:17.365Z,15.97
2018-12-24T17:18:50.266Z,13.63
2018-12-24T17:21:23.302Z,13.13
2018-12-24T17:23:57.496Z,14.90
2018-12-24T17:26:31.413Z,14.33
2018-12-24T17:29:05.288Z,15.97
2018-12-24T17:31:39.323Z,11.67
2018-12-24T17:34:13.127Z,16.90
2018-12-24T17:36:47.084Z,20.12
2018-12-24T17:39:20.490Z,15.10
2018-12-24T17:41:57.337Z,11.87
2018-12-24T17:44:31.015Z,16.83
2018-12-24T17:47:05.683Z,11.80
2018-12-24T17:49:40.652Z,11.97
2018-12-24T17:52:14.671Z,13.83
2018-12-24T17:54:48.039Z,14.83
2018-12-24T17:57:22.569Z,16.27
2018-12-24T17:59:55.444Z,17.65
2018-12-24T18:02:28.799Z,14.17
2018-12-24T18:05:01.758Z,14.83
2018-12-24T18:07:34.779Z,21.47
2018-12-24T18:10:07.713Z,22.98
2018-12-24T18:12:42.524Z,26.03
2018-12-24T18:15:19.538Z,20.63
2018-12-24T18:17:53.743Z,29.47
2018-12-24T18:20:27.239Z,23.50
2018-12-24T18:23:00.293Z,21.43
2018-12-24T18:25:35.091Z,26.50
2018-12-24T18:28:09.710Z,22.77
2018-12-24T18:30:44.148Z,31.40
2018-12-24T18:33:17.666Z,36.77
2018-12-24T18:35:51.306Z,42.90
2018-12-24T18:38:25.677Z,38.70
2018-12-24T18:41:00.661Z,31.73
2018-12-24T18:43:34.214Z,39.27
2018-12-24T18:46:07.591Z,35.40
2018-12-24T18:48:41.376Z,30.27
2018-12-24T18:51:14.391Z,28.87
2018-12-24T18:53:47.625Z,23.07
2018-12-24T18:56:20.463Z,28.90
2018-12-24T18:58:53.325Z,44.87
2018-12-24T19:01:26.900Z,44.17
2018-12-24T19:04:00.958Z,49.87
2018-12-24T19:06:33.884Z,38.67
2018-12-24T19:09:08.328Z,39.47
2018-12-24T19:11:41.290Z,33.00
2018-12-24T19:14:14.359Z,36.97
2018-12-24T19:16:48.144Z,31.30
2018-12-24T19:19:21.970Z,29.70
2018-12-24T19:21:56.084Z,32.23
2018-12-24T19:24:38.384Z,41.53
2018-12-24T19:27:11.293Z,39.87
2018-12-24T19:29:50.557Z,34.90
2018-12-24T19:32:26.612Z,24.80
2018-12-24T19:35:03.215Z,31.73
2018-12-24T19:37:36.588Z,27.90
2018-12-24T19:40:11.697Z,25.90
2018-12-24T19:42:45.461Z,26.08
2018-12-24T19:46:28.897Z,21.70
2018-12-24T19:49:03.758Z,19.47
2018-12-24T19:51:43.664Z,19.33
2018-12-24T19:54:21.277Z,20.13
2018-12-24T19:56:54.694Z,21.63
2018-12-24T19:59:34.048Z,23.60
2018-12-24T20:02:09.766Z,21.47
2018-12-24T20:04:44.081Z,23.67
2018-12-24T20:07:19.352Z,21.07
2018-12-24T20:09:54.590Z,21.93
2018-12-24T20:12:30.224Z,21.80
2018-12-24T20:15:06.548Z,20.70
2018-12-24T20:17:40.184Z,23.05
2018-12-24T20:20:13.987Z,18.40
2018-12-24T20:22:47.619Z,17.60
2018-12-24T20:25:23.406Z,21.63
2018-12-24T20:27:58.403Z,22.03
2018-12-24T20:30:31.408Z,19.50
2018-12-24T20:33:04.910Z,18.33
2018-12-24T20:35:38.860Z,18.60
2018-12-24T20:38:13.521Z,18.10
2018-12-24T20:40:47.345Z,17.43
2018-12-24T20:43:22.188Z,17.27
2018-12-24T20:45:55.970Z,15.80
2018-12-24T20:48:30.490Z,18.07
2018-12-24T20:51:04.720Z,16.50
2018-12-24T20:53:37.823Z,19.73
2018-12-24T20:56:12.913Z,19.98
2018-12-24T20:58:47.370Z,17.83
2018-12-24T21:01:21.547Z,20.57
2018-12-24T21:03:56.185Z,20.53
2018-12-24T21:06:29.836Z,19.67
2018-12-24T21:09:04.817Z,19.23
2018-12-24T21:11:41.120Z,15.80
2018-12-24T21:14:17.092Z,15.00
2018-12-24T21:16:50.764Z,17.37
2018-12-24T21:19:24.795Z,15.13
2018-12-24T21:21:59.917Z,14.80
2018-12-24T21:24:32.867Z,16.03
2018-12-24T21:27:06.756Z,15.77
2018-12-24T21:29:41.295Z,14.23
2018-12-24T21:32:14.295Z,13.87
2018-12-24T21:34:48.056Z,17.33
2018-12-24T21:37:21.221Z,17.60
2018-12-24T21:39:54.197Z,25.50
2018-12-24T21:42:27.724Z,33.83
2018-12-24T21:45:03.902Z,30.60
2018-12-24T21:47:37.638Z,27.63
2018-12-24T21:50:13.672Z,23.33
2018-12-24T21:52:46.972Z,21.83
2018-12-24T21:55:19.998Z,25.10
2018-12-24T21:57:53.475Z,18.60
2018-12-24T22:00:28.058Z,16.63
2018-12-24T22:03:02.142Z,15.93
2018-12-24T22:05:36.496Z,15.47
2018-12-24T22:08:09.985Z,17.77
2018-12-24T22:10:43.981Z,17.20
2018-12-24T22:13:17.871Z,17.43
2018-12-24T22:15:56.759Z,16.00
2018-12-24T22:18:32.370Z,19.23
2018-12-24T22:21:07.445Z,19.37
2018-12-24T22:23:41.375Z,22.10
2018-12-24T22:26:15.741Z,18.00
2018-12-24T22:28:49.715Z,17.63
2018-12-24T22:31:25.242Z,17.77
2018-12-24T22:33:58.269Z,19.17
2018-12-24T22:36:32.727Z,18.67
2018-12-24T22:39:08.630Z,16.57
2018-12-24T22:41:42.620Z,15.07
2018-12-24T22:44:17.297Z,14.07
2018-12-24T22:46:50.493Z,14.87
2018-12-24T22:49:24.558Z,15.30
2018-12-24T22:51:58.826Z,15.47
2018-12-24T22:54:32.644Z,13.90
2018-12-24T22:57:05.641Z,12.60
2018-12-24T22:59:39.247Z,12.57
2018-12-24T23:02:12.274Z,13.20
2018-12-24T23:04:45.179Z,13.43
2018-12-24T23:07:18.530Z,14.60
2018-12-24T23:09:52.365Z,13.10
2018-12-24T23:12:27.706Z,12.10
2018-12-24T23:15:05.046Z,13.07
2018-12-24T23:17:39.222Z,15.53
2018-12-24T23:20:16.424Z,12.17
2018-12-24T23:22:51.063Z,13.40
2018-12-24T23:25:24.035Z,13.80
2018-12-24T23:28:02.934Z,13.27
2018-12-24T23:30:36.663Z,13.53
2018-12-24T23:33:11.399Z,13.40
2018-12-24T23:35:45.832Z,12.53
2018-12-24T23:38:18.872Z,11.83
2018-12-24T23:40:51.854Z,12.60
2018-12-24T23:43:25.449Z,11.25
2018-12-24T23:46:02.025Z,12.00
2018-12-24T23:48:36.195Z,11.67
2018-12-24T23:51:09.703Z,11.13
2018-12-24T23:53:42.630Z,10.77
2018-12-24T23:56:17.631Z,11.83
2018-12-24T23:58:54.175Z,11.27
